createdAt,value
2019-01-05T00:01:04.733Z,5.45
2019-01-05T00:03:52.973Z,5.39
2019-01-05T00:06:39.980Z,5.38
2019-01-05T00:09:29.368Z,5.39
2019-01-05T00:12:14.848Z,5.41
2019-01-05T00:15:07.549Z,5.45
2019-01-05T00:18:06.662Z,5.41
2019-01-05T00:20:45.217Z,5.54
2019-01-05T00:23:31.455Z,5.39
2019-01-05T00:26:21.212Z,5.34
2019-01-05T00:29:07.012Z,5.35
2019-01-05T00:31:50.018Z,5.34
2019-01-05T00:34:51.580Z,5.33
2019-01-05T00:37:53.041Z,5.31
2019-01-05T00:40:38.571Z,5.30
2019-01-05T00:43:31.589Z,5.28
2019-01-05T00:46:17.885Z,5.28
2019-01-05T00:49:04.879Z,5.36
2019-01-05T00:51:52.032Z,5.30
2019-01-05T00:54:56.991Z,5.26
2019-01-05T00:57:43.027Z,5.26
2019-01-05T01:00:29.797Z,5.25
2019-01-05T01:03:34.682Z,5.24
2019-01-05T01:06:16.082Z,5.23
2019-01-05T01:09:03.217Z,5.22
2019-01-05T01:11:56.093Z,5.23
2019-01-05T01:14:41.012Z,5.21
2019-01-05T01:17:36.520Z,5.23
2019-01-05T01:20:29.243Z,5.30
2019-01-05T01:23:14.561Z,5.32
2019-01-05T01:26:07.506Z,5.33
2019-01-05T01:28:52.793Z,5.28
2019-01-05T01:31:38.022Z,5.27
2019-01-05T01:34:23.289Z,5.25
2019-01-05T01:37:08.704Z,5.22
2019-01-05T01:39:58.663Z,5.16
2019-01-05T01:42:44.125Z,5.14
2019-01-05T01:45:34.389Z,5.19
2019-01-05T01:48:10.667Z,5.15
2019-01-05T01:50:57.200Z,5.10
2019-01-05T01:53:42.601Z,5.21
2019-01-05T01:56:29.831Z,5.19
2019-01-05T01:59:30.197Z,5.22
2019-01-05T02:02:28.163Z,5.22
2019-01-05T02:05:18.554Z,5.33
2019-01-05T02:08:15.688Z,5.29
2019-01-05T02:11:16.747Z,5.27
2019-01-05T02:14:04.103Z,5.38
2019-01-05T02:17:06.676Z,5.35
2019-01-05T02:20:34.499Z,5.38
2019-01-05T02:24:14.608Z,5.33
2019-01-05T02:27:43.782Z,5.22
2019-01-05T02:31:36.135Z,5.24
2019-01-05T02:35:21.454Z,5.14
2019-01-05T02:38:49.347Z,5.29
2019-01-05T02:42:16.503Z,5.30
2019-01-05T02:45:46.286Z,5.23
2019-01-05T02:48:57.767Z,5.17
2019-01-05T02:52:00.795Z,5.13
2019-01-05T02:55:39.402Z,5.06
2019-01-05T02:59:30.161Z,5.21
2019-01-05T03:02:54.498Z,5.23
2019-01-05T03:06:00.491Z,5.27
2019-01-05T03:09:34.063Z,5.25
2019-01-05T03:12:55.933Z,5.17
2019-01-05T03:16:38.949Z,5.13
2019-01-05T03:20:07.080Z,5.09
2019-01-05T03:23:31.260Z,5.06
2019-01-05T03:26:55.344Z,5.03
2019-01-05T03:30:40.402Z,5.05
2019-01-05T03:34:01.044Z,5.23
2019-01-05T03:37:26.181Z,5.25
2019-01-05T03:40:59.195Z,5.11
2019-01-05T03:44:51.458Z,5.05
2019-01-05T03:48:14.695Z,5.05
2019-01-05T03:51:43.457Z,5.03
2019-01-05T03:55:08.781Z,5.10
2019-01-05T03:58:41.335Z,4.98
2019-01-05T04:02:37.244Z,5.01
2019-01-05T04:06:11.306Z,5.00
2019-01-05T04:10:08.129Z,5.04
2019-01-05T04:13:35.211Z,4.91
2019-01-05T04:17:12.519Z,5.08
2019-01-05T04:20:54.413Z,4.99
2019-01-05T04:24:40.715Z,4.98
2019-01-05T04:28:06.383Z,5.00
2019-01-05T04:31:41.788Z,4.97
2019-01-05T04:35:03.574Z,4.90
2019-01-05T04:38:20.732Z,4.89
2019-01-05T04:41:36.672Z,4.94
2019-01-05T04:44:49.697Z,4.89
2019-01-05T04:47:53.898Z,4.82
2019-01-05T04:51:17.262Z,4.76
2019-01-05T04:54:54.788Z,4.75
2019-01-05T04:58:13.013Z,4.97
2019-01-05T05:01:24.539Z,4.92
2019-01-05T05:04:59.355Z,4.89
2019-01-05T05:08:32.701Z,4.85
2019-01-05T05:11:49.245Z,4.91
2019-01-05T05:15:36.765Z,4.97
2019-01-05T05:18:50.597Z,4.94
2019-01-05T05:22:39.391Z,4.87
2019-01-05T05:25:55.638Z,4.94
2019-01-05T05:29:50.738Z,4.91
2019-01-05T05:33:10.278Z,4.82
2019-01-05T05:36:36.534Z,4.79
2019-01-05T05:40:01.606Z,4.81
2019-01-05T05:43:25.461Z,4.88
2019-01-05T05:46:54.375Z,4.93
2019-01-05T05:50:05.771Z,5.03
2019-01-05T05:53:43.719Z,5.03
2019-01-05T05:56:30.761Z,5.06
2019-01-05T05:59:38.320Z,5.03
2019-01-05T06:03:00.870Z,5.07
2019-01-05T06:06:23.357Z,5.09
2019-01-05T06:10:02.202Z,5.07
2019-01-05T06:13:32.442Z,5.26
2019-01-05T06:17:03.428Z,5.25
2019-01-05T06:20:19.097Z,5.23
2019-01-05T06:23:47.663Z,5.21
2019-01-05T06:27:03.710Z,5.26
2019-01-05T06:30:42.608Z,5.14
2019-01-05T06:34:27.684Z,5.20
2019-01-05T06:37:34.874Z,5.24
2019-01-05T06:41:13.735Z,5.38
2019-01-05T06:44:43.238Z,5.43
2019-01-05T06:48:07.948Z,5.37
2019-01-05T06:51:40.579Z,5.44
2019-01-05T06:55:04.950Z,5.36
2019-01-05T06:58:27.408Z,5.41
2019-01-05T07:02:09.415Z,5.54
2019-01-05T07:05:32.535Z,5.54
2019-01-05T07:08:53.968Z,5.58
2019-01-05T07:12:24.055Z,5.64
2019-01-05T07:15:58.849Z,5.57
2019-01-05T07:19:32.503Z,5.58
2019-01-05T07:22:58.160Z,5.43
2019-01-05T07:26:33.758Z,5.49
2019-01-05T07:30:09.043Z,5.55
2019-01-05T07:33:33.037Z,5.52
2019-01-05T07:36:53.368Z,5.65
2019-01-05T07:40:23.915Z,5.56
2019-01-05T07:43:51.776Z,5.45
2019-01-05T07:47:03.641Z,5.47
2019-01-05T07:50:24.269Z,5.49
2019-01-05T07:54:09.562Z,5.51
2019-01-05T07:57:38.161Z,5.53
2019-01-05T08:00:57.747Z,5.69
2019-01-05T08:04:30.357Z,5.61
2019-01-05T08:08:03.390Z,5.67
2019-01-05T08:11:29.338Z,5.64
2019-01-05T08:14:54.836Z,5.64
2019-01-05T08:18:21.711Z,5.69
2019-01-05T08:21:54.761Z,5.88
2019-01-05T08:25:32.415Z,5.87
2019-01-05T08:29:23.776Z,6.05
2019-01-05T08:32:47.032Z,6.12
2019-01-05T08:36:31.877Z,6.05
2019-01-05T08:39:55.103Z,6.29
2019-01-05T08:43:18.216Z,6.60
2019-01-05T08:47:23.779Z,6.94
2019-01-05T08:50:32.913Z,7.11
2019-01-05T08:53:58.378Z,7.32
2019-01-05T08:57:26.811Z,7.47
2019-01-05T09:00:49.760Z,7.55
2019-01-05T09:04:25.532Z,7.63
2019-01-05T09:08:00.663Z,7.69
2019-01-05T09:11:19.278Z,7.76
2019-01-05T09:14:45.030Z,7.98
2019-01-05T09:18:10.796Z,8.01
2019-01-05T09:21:22.232Z,8.11
2019-01-05T09:24:49.518Z,7.96
2019-01-05T09:28:03.557Z,8.14
2019-01-05T09:31:40.713Z,8.15
2019-01-05T09:35:34.369Z,8.20
2019-01-05T09:39:08.370Z,8.35
2019-01-05T09:42:34.264Z,8.42
2019-01-05T09:45:45.138Z,8.39
2019-01-05T09:48:59.369Z,8.40
2019-01-05T09:52:22.838Z,8.36
2019-01-05T09:55:44.077Z,8.38
2019-01-05T09:59:30.540Z,8.34
2019-01-05T10:03:00.901Z,8.36
2019-01-05T10:06:47.427Z,8.28
2019-01-05T10:09:59.180Z,8.34
2019-01-05T10:13:24.153Z,8.34
2019-01-05T10:16:42.216Z,8.32
2019-01-05T10:20:19.167Z,8.36
2019-01-05T10:23:54.890Z,8.41
2019-01-05T10:27:19.633Z,8.54
2019-01-05T10:31:01.147Z,8.57
2019-01-05T10:34:19.593Z,8.60
2019-01-05T10:37:54.519Z,8.63
2019-01-05T10:41:20.716Z,8.63
2019-01-05T10:44:51.902Z,8.58
2019-01-05T10:48:03.680Z,8.63
2019-01-05T10:51:20.796Z,8.63
2019-01-05T10:54:53.118Z,8.65
2019-01-05T10:58:42.143Z,8.85
2019-01-05T11:02:11.761Z,8.85
2019-01-05T11:05:40.695Z,9.07
2019-01-05T11:08:57.699Z,9.30
2019-01-05T11:12:32.468Z,9.59
2019-01-05T11:15:54.797Z,9.90
2019-01-05T11:19:44.239Z,10.09
2019-01-05T11:23:05.457Z,10.36
2019-01-05T11:26:30.997Z,10.73
2019-01-05T11:30:10.157Z,11.00
2019-01-05T11:33:27.710Z,11.48
2019-01-05T11:37:00.687Z,12.14
2019-01-05T11:40:48.933Z,12.36
2019-01-05T11:44:14.382Z,12.29
2019-01-05T11:47:43.811Z,11.92
2019-01-05T11:51:08.130Z,11.58
2019-01-05T11:54:31.360Z,11.37
2019-01-05T11:58:28.357Z,11.17
2019-01-05T12:01:55.841Z,10.98
2019-01-05T12:05:31.970Z,10.83
2019-01-05T12:08:50.309Z,10.84
2019-01-05T12:12:26.029Z,10.88
2019-01-05T12:16:05.312Z,10.90
2019-01-05T12:20:00.721Z,10.90
2019-01-05T12:23:20.384Z,10.93
2019-01-05T12:26:41.986Z,10.98
2019-01-05T12:30:03.810Z,11.03
2019-01-05T12:33:35.757Z,10.92
2019-01-05T12:37:10.468Z,10.74
2019-01-05T12:40:30.216Z,10.69
2019-01-05T12:43:52.356Z,10.56
2019-01-05T12:47:13.172Z,10.38
2019-01-05T12:50:34.808Z,10.16
2019-01-05T12:54:11.117Z,10.04
2019-01-05T12:58:18.339Z,9.94
2019-01-05T13:01:41.847Z,9.78
2019-01-05T13:05:16.206Z,9.68
2019-01-05T13:08:36.293Z,9.61
2019-01-05T13:11:51.109Z,9.69
2019-01-05T13:15:28.985Z,9.62
2019-01-05T13:18:56.129Z,9.50
2019-01-05T13:22:53.451Z,9.39
2019-01-05T13:26:31.803Z,9.31
2019-01-05T13:30:20.115Z,9.29
2019-01-05T13:34:02.415Z,9.28
2019-01-05T13:37:35.845Z,9.17
2019-01-05T13:41:18.098Z,9.13
2019-01-05T13:44:58.309Z,9.07
2019-01-05T13:48:37.496Z,9.16
2019-01-05T13:52:11.911Z,9.09
2019-01-05T13:54:58.542Z,8.99
2019-01-05T13:57:44.250Z,9.01
2019-01-05T14:00:28.063Z,9.05
2019-01-05T14:03:14.867Z,8.94
2019-01-05T14:06:07.610Z,9.00
2019-01-05T14:09:09.572Z,8.99
2019-01-05T14:11:59.022Z,8.92
2019-01-05T14:14:52.171Z,8.96
2019-01-05T14:17:37.497Z,8.97
2019-01-05T14:20:22.255Z,8.87
2019-01-05T14:23:07.223Z,8.75
2019-01-05T14:25:57.009Z,8.70
2019-01-05T14:28:43.926Z,8.76
2019-01-05T14:31:33.527Z,8.69
2019-01-05T14:34:23.405Z,8.78
2019-01-05T14:37:10.161Z,8.69
2019-01-05T14:40:14.913Z,8.65
2019-01-05T14:43:07.374Z,8.53
2019-01-05T14:45:54.519Z,8.63
2019-01-05T14:48:56.723Z,8.55
2019-01-05T14:51:58.483Z,8.49
2019-01-05T14:54:43.774Z,8.51
2019-01-05T14:57:28.870Z,8.49
2019-01-05T15:00:14.189Z,8.41
2019-01-05T15:03:06.769Z,8.40
2019-01-05T15:05:48.052Z,8.37
2019-01-05T15:08:33.515Z,8.26
2019-01-05T15:11:23.316Z,8.21
2019-01-05T15:14:10.262Z,8.24
2019-01-05T15:16:55.426Z,8.22
2019-01-05T15:20:00.449Z,8.18
2019-01-05T15:22:58.978Z,8.15
2019-01-05T15:25:44.264Z,8.33
2019-01-05T15:28:29.519Z,8.32
2019-01-05T15:31:14.713Z,8.36
2019-01-05T15:34:01.699Z,8.24
2019-01-05T15:37:00.426Z,8.18
2019-01-05T15:39:53.094Z,8.13
2019-01-05T15:42:39.925Z,8.17
2019-01-05T15:45:41.600Z,8.16
2019-01-05T15:48:27.104Z,8.23
2019-01-05T15:51:19.549Z,8.23
2019-01-05T15:54:08.375Z,8.22
2019-01-05T15:56:55.408Z,8.19
2019-01-05T15:59:40.781Z,8.14
2019-01-05T16:02:29.227Z,8.16
2019-01-05T16:05:18.879Z,8.18
2019-01-05T16:08:04.288Z,8.23
2019-01-05T16:10:52.695Z,8.18
2019-01-05T16:13:51.370Z,8.15
2019-01-05T16:16:47.071Z,8.14
2019-01-05T16:19:32.712Z,8.19
2019-01-05T16:22:18.350Z,8.14
2019-01-05T16:25:03.428Z,8.14
2019-01-05T16:27:53.059Z,8.23
2019-01-05T16:30:51.739Z,8.17
2019-01-05T16:33:53.479Z,8.14
2019-01-05T16:36:38.432Z,8.13
2019-01-05T16:39:28.589Z,8.14
2019-01-05T16:42:13.998Z,8.27
2019-01-05T16:44:59.562Z,8.17
2019-01-05T16:47:49.320Z,8.18
2019-01-05T16:50:34.570Z,8.16
2019-01-05T16:53:27.221Z,8.15
2019-01-05T16:56:14.039Z,8.10
2019-01-05T16:59:00.880Z,8.08
2019-01-05T17:01:52.230Z,8.14
2019-01-05T17:04:56.925Z,8.24
2019-01-05T17:07:44.046Z,8.18
2019-01-05T17:10:37.873Z,8.23
2019-01-05T17:13:42.669Z,8.29
2019-01-05T17:16:47.394Z,8.16
2019-01-05T17:19:36.494Z,8.12
2019-01-05T17:22:22.993Z,8.17
2019-01-05T17:25:07.346Z,8.21
2019-01-05T17:28:00.403Z,8.07
2019-01-05T17:30:45.882Z,8.06
2019-01-05T17:33:47.560Z,8.02
2019-01-05T17:36:52.671Z,8.03
2019-01-05T17:39:50.357Z,8.09
2019-01-05T17:42:41.099Z,8.11
2019-01-05T17:45:27.031Z,8.09
2019-01-05T17:48:25.900Z,8.06
2019-01-05T17:51:11.000Z,8.05
2019-01-05T17:53:56.118Z,8.05
2019-01-05T17:56:49.471Z,8.15
2019-01-05T17:59:48.169Z,8.12
2019-01-05T18:02:49.819Z,8.04
2019-01-05T18:05:35.586Z,8.05
2019-01-05T18:08:28.348Z,8.07
2019-01-05T18:11:14.541Z,7.96
2019-01-05T18:13:58.454Z,7.97
2019-01-05T18:16:45.825Z,7.92
2019-01-05T18:19:38.400Z,7.86
2019-01-05T18:22:33.870Z,7.86
2019-01-05T18:25:35.722Z,7.91
2019-01-05T18:28:37.165Z,7.97
2019-01-05T18:31:30.080Z,7.95
2019-01-05T18:34:15.414Z,7.97
2019-01-05T18:37:00.602Z,8.03
2019-01-05T18:39:45.794Z,7.93
2019-01-05T18:42:41.318Z,7.87
2019-01-05T18:45:39.832Z,7.89
2019-01-05T18:48:38.436Z,8.00
2019-01-05T18:51:31.024Z,7.94
2019-01-05T18:54:15.939Z,8.10
2019-01-05T18:57:01.546Z,7.99
2019-01-05T18:59:48.297Z,7.94
2019-01-05T19:02:35.190Z,7.90
2019-01-05T19:05:25.010Z,7.89
2019-01-05T19:08:10.549Z,7.92
2019-01-05T19:10:55.785Z,7.97
2019-01-05T19:13:45.701Z,7.90
2019-01-05T19:16:31.007Z,8.02
2019-01-05T19:19:16.484Z,8.06
2019-01-05T19:22:02.093Z,8.17
2019-01-05T19:24:57.765Z,8.10
2019-01-05T19:27:44.372Z,7.96
2019-01-05T19:30:29.836Z,7.96
2019-01-05T19:33:22.105Z,8.12
2019-01-05T19:36:14.435Z,7.99
2019-01-05T19:39:12.989Z,7.98
2019-01-05T19:42:00.067Z,7.91
2019-01-05T19:44:45.182Z,7.87
2019-01-05T19:47:30.253Z,7.86
2019-01-05T19:50:32.180Z,7.93
2019-01-05T19:53:23.063Z,7.98
2019-01-05T19:56:08.608Z,8.20
2019-01-05T19:58:53.742Z,8.24
2019-01-05T20:01:46.300Z,8.13
2019-01-05T20:04:36.094Z,8.02
2019-01-05T20:07:21.311Z,7.95
2019-01-05T20:10:07.017Z,7.99
2019-01-05T20:12:59.887Z,8.19
2019-01-05T20:15:49.483Z,8.19
2019-01-05T20:18:35.514Z,8.13
2019-01-05T20:21:21.202Z,8.17
2019-01-05T20:24:14.029Z,8.06
2019-01-05T20:26:53.781Z,7.98
2019-01-05T20:29:35.303Z,8.01
2019-01-05T20:32:20.377Z,7.99
2019-01-05T20:35:05.538Z,8.09
2019-01-05T20:37:45.963Z,8.07
2019-01-05T20:40:41.867Z,8.07
2019-01-05T20:43:37.962Z,8.04
2019-01-05T20:46:23.320Z,7.97
2019-01-05T20:49:08.770Z,7.95
2019-01-05T20:52:13.471Z,7.87
2019-01-05T20:54:58.790Z,7.94
2019-01-05T20:57:57.675Z,7.98
2019-01-05T21:00:47.413Z,8.04
2019-01-05T21:03:34.751Z,7.96
2019-01-05T21:06:20.094Z,7.96
2019-01-05T21:09:24.999Z,7.93
2019-01-05T21:12:10.213Z,7.90
2019-01-05T21:14:57.245Z,7.90
2019-01-05T21:17:42.502Z,7.97
2019-01-05T21:20:25.578Z,7.97
2019-01-05T21:23:27.547Z,8.03
2019-01-05T21:26:29.531Z,7.92
2019-01-05T21:29:14.731Z,7.92
2019-01-05T21:31:54.698Z,7.97
2019-01-05T21:34:36.485Z,7.89
2019-01-05T21:37:32.326Z,7.82
2019-01-05T21:40:18.253Z,7.81
2019-01-05T21:42:57.368Z,7.79
2019-01-05T21:46:01.841Z,7.77
2019-01-05T21:48:46.805Z,7.84
2019-01-05T21:51:39.642Z,7.81
2019-01-05T21:54:41.034Z,7.80
2019-01-05T21:57:22.275Z,7.78
2019-01-05T22:00:09.047Z,7.82
2019-01-05T22:03:01.835Z,7.91
2019-01-05T22:05:48.548Z,7.86
2019-01-05T22:08:47.214Z,7.97
2019-01-05T22:11:26.344Z,7.92
2019-01-05T22:14:22.302Z,7.91
2019-01-05T22:17:07.209Z,7.92
2019-01-05T22:19:52.175Z,7.91
2019-01-05T22:22:49.831Z,7.80
2019-01-05T22:25:54.889Z,7.86
2019-01-05T22:28:33.125Z,7.84
2019-01-05T22:31:26.493Z,7.90
2019-01-05T22:34:13.269Z,7.88
2019-01-05T22:37:03.541Z,7.93
2019-01-05T22:39:48.960Z,7.85
2019-01-05T22:42:34.639Z,7.84
2019-01-05T22:45:39.415Z,7.73
2019-01-05T22:48:31.635Z,7.71
2019-01-05T22:51:18.829Z,7.76
2019-01-05T22:54:04.373Z,7.65
2019-01-05T22:56:49.958Z,7.62
2019-01-05T22:59:32.050Z,7.61
2019-01-05T23:02:22.667Z,7.62
2019-01-05T23:05:12.243Z,7.57
2019-01-05T23:07:59.322Z,7.70
2019-01-05T23:10:44.562Z,7.69
2019-01-05T23:13:31.187Z,7.68
2019-01-05T23:16:27.107Z,7.69
2019-01-05T23:19:12.638Z,7.69
2019-01-05T23:21:59.477Z,7.52
2019-01-05T23:25:03.965Z,7.50
2019-01-05T23:27:51.221Z,7.41
2019-01-05T23:30:43.843Z,7.35
2019-01-05T23:33:43.112Z,7.39
2019-01-05T23:36:28.405Z,7.36
2019-01-05T23:39:30.120Z,7.45
2019-01-05T23:42:09.623Z,7.46
2019-01-05T23:44:54.535Z,7.45
2019-01-05T23:47:59.043Z,7.43
2019-01-05T23:50:45.825Z,7.56
2019-01-05T23:53:29.827Z,7.72
2019-01-05T23:56:19.760Z,7.72
2019-01-05T23:59:05.445Z,7.67
